F/v_l'omerta — FHXG — position and weather

sailwx.info

Track history (hours):
 
Tides and Currents Weather Stations Pressure Air Temp Water Temp Dewpoint Dewpoint Depression Visibility Wind Speed Wind Dir Waves Ship Positions

F/v_l'omerta

Last reported at 2016-Sep-27 00:33 UTC. Time now 2016-Sep-27 15:33 UTC.
Position N 46°09' W 001°13'.

Length 18 m.

Type: Fishing. MMSI: 227903000.

Date/timePositionNaut miles runAvg speedWind from/ knotsBaromVisibWave heightAir tempDewpointWater temp
2016-Sep-27 00:33N 46°09' W 001°13'20 3.7
2016-Sep-26 19:09N 46°09' W 001°42'12 0.3
2016-Sep-25 04:33N 46°01' W 001°31'15 3.7
2016-Sep-25 00:34N 46°09' W 001°14'5 2.7
2016-Sep-24 22:33N 46°07' W 001°20'6 6.0
2016-Sep-24 21:33N 46°05' W 001°29'9 1.9
2016-Sep-24 16:32N 45°59' W 001°38'2 1.2
2016-Sep-24 14:29N 45°56' W 001°37'2 0.9
2016-Sep-24 12:32N 45°56' W 001°34'1 0.3
2016-Sep-24 09:19N 45°57' W 001°35'4 0.7
2016-Sep-24 03:29N 46°01' W 001°35'3 2.9
2016-Sep-24 02:31N 46°01' W 001°31'4 3.5
2016-Sep-24 01:26N 46°00' W 001°37'4 3.6
2016-Sep-24 00:19N 46°03' W 001°41'5 0.8
2016-Sep-23 17:33N 45°60' W 001°35'3 3.3
2016-Sep-23 16:32N 46°01' W 001°30'3 2.6
2016-Sep-23 15:33N 46°02' W 001°34'2 1.0
2016-Sep-23 13:34N 46°01' W 001°32'1 0.2
2016-Sep-23 06:32N 46°00' W 001°34'3 1.1
2016-Sep-23 03:31N 46°01' W 001°29'4 3.9
2016-Sep-23 02:33N 46°05' W 001°26'9 9.2
2016-Sep-23 01:34N 46°08' W 001°15'1 0.9
2016-Sep-23 00:29N 46°09' W 001°13'3 2.9
2016-Sep-22 23:34N 46°07' W 001°16'12 0.6
2016-Sep-22 04:31N 46°02' W 001°31'3 3.4
2016-Sep-22 03:33N 46°03' W 001°35'10 3.2
2016-Sep-22 00:28N 46°11' W 001°44'3 3.6
2016-Sep-21 23:34N 46°14' W 001°46'5 5.1
2016-Sep-21 22:33N 46°19' W 001°47'6 1.9
2016-Sep-21 19:34N 46°25' W 001°46'18 5.9
2016-Sep-21 16:33N 46°07' W 001°40'4 0.5
2016-Sep-21 09:26N 46°11' W 001°37'3 3.2
2016-Sep-21 08:33N 46°11' W 001°41'3 1.0
2016-Sep-21 05:33N 46°12' W 001°37'3 1.3
2016-Sep-21 03:34N 46°10' W 001°35'3 3.4
2016-Sep-21 02:33N 46°12' W 001°39'3 0.4
2016-Sep-20 17:33N 46°08' W 001°39'1 0.2
2016-Sep-20 14:25N 46°09' W 001°38'2 1.9
2016-Sep-20 13:07N 46°07' W 001°37'2 0.6
2016-Sep-20 10:09N 46°07' W 001°40'2 1.2
2016-Sep-20 08:28N 46°07' W 001°37'3 2.9
2016-Sep-20 07:34N 46°08' W 001°40'10 1.9
2016-Sep-20 02:33N 46°18' W 001°44'7 2.2
2016-Sep-19 23:34N 46°21' W 001°52'7 1.8
2016-Sep-19 19:34N 46°28' W 001°47'9 8.8
2016-Sep-19 18:33N 46°19' W 001°44'12 2.8
2016-Sep-19 14:16N 46°08' W 001°40'2 1.3
2016-Sep-19 12:31N 46°07' W 001°36'3 1.0
2016-Sep-19 09:26N 46°09' W 001°40'6 3.3
2016-Sep-19 07:34N 46°15' W 001°43'4 3.8
2016-Sep-19 06:34N 46°18' W 001°44'5 1.8
2016-Sep-19 03:33N 46°22' W 001°50'4 3.8
2016-Sep-19 02:34N 46°20' W 001°55'6 2.8
2016-Sep-19 00:34N 46°23' W 002°02'7 1.4
2016-Sep-18 19:33N 46°24' W 001°52'11 1.2
2016-Sep-18 10:28N 46°13' W 001°46'3 3.5
2016-Sep-18 09:33N 46°16' W 001°48'14 0.4
2016-Sep-17 00:33N 46°30' W 001°47'  
Track history (hours):
 
Tides and Currents Weather Stations Pressure Air Temp Water Temp Dewpoint Dewpoint Depression Visibility Wind Speed Wind Dir Waves Ship Positions

F/v_l'omerta

Last reported at 2016-Sep-27 00:33 UTC. Time now 2016-Sep-27 15:33 UTC.
Position N 46°09' W 001°13'.

Length 18 m.

Type: Fishing. MMSI: 227903000.

Date/timePositionNaut miles runAvg speedWind from/ knotsBaromVisibWave heightAir tempDewpointWater temp
2016-Sep-27 00:33N 46°09' W 001°13'20 3.7
2016-Sep-26 19:09N 46°09' W 001°42'12 0.3
2016-Sep-25 04:33N 46°01' W 001°31'15 3.7
2016-Sep-25 00:34N 46°09' W 001°14'5 2.7
2016-Sep-24 22:33N 46°07' W 001°20'6 6.0
2016-Sep-24 21:33N 46°05' W 001°29'9 1.9
2016-Sep-24 16:32N 45°59' W 001°38'2 1.2
2016-Sep-24 14:29N 45°56' W 001°37'2 0.9
2016-Sep-24 12:32N 45°56' W 001°34'1 0.3
2016-Sep-24 09:19N 45°57' W 001°35'4 0.7
2016-Sep-24 03:29N 46°01' W 001°35'3 2.9
2016-Sep-24 02:31N 46°01' W 001°31'4 3.5
2016-Sep-24 01:26N 46°00' W 001°37'4 3.6
2016-Sep-24 00:19N 46°03' W 001°41'5 0.8
2016-Sep-23 17:33N 45°60' W 001°35'3 3.3
2016-Sep-23 16:32N 46°01' W 001°30'3 2.6
2016-Sep-23 15:33N 46°02' W 001°34'2 1.0
2016-Sep-23 13:34N 46°01' W 001°32'1 0.2
2016-Sep-23 06:32N 46°00' W 001°34'3 1.1
2016-Sep-23 03:31N 46°01' W 001°29'4 3.9
2016-Sep-23 02:33N 46°05' W 001°26'9 9.2
2016-Sep-23 01:34N 46°08' W 001°15'1 0.9
2016-Sep-23 00:29N 46°09' W 001°13'3 2.9
2016-Sep-22 23:34N 46°07' W 001°16'12 0.6
2016-Sep-22 04:31N 46°02' W 001°31'3 3.4
2016-Sep-22 03:33N 46°03' W 001°35'10 3.2
2016-Sep-22 00:28N 46°11' W 001°44'3 3.6
2016-Sep-21 23:34N 46°14' W 001°46'5 5.1
2016-Sep-21 22:33N 46°19' W 001°47'6 1.9
2016-Sep-21 19:34N 46°25' W 001°46'18 5.9
2016-Sep-21 16:33N 46°07' W 001°40'4 0.5
2016-Sep-21 09:26N 46°11' W 001°37'3 3.2
2016-Sep-21 08:33N 46°11' W 001°41'3 1.0
2016-Sep-21 05:33N 46°12' W 001°37'3 1.3
2016-Sep-21 03:34N 46°10' W 001°35'3 3.4
2016-Sep-21 02:33N 46°12' W 001°39'3 0.4
2016-Sep-20 17:33N 46°08' W 001°39'1 0.2
2016-Sep-20 14:25N 46°09' W 001°38'2 1.9
2016-Sep-20 13:07N 46°07' W 001°37'2 0.6
2016-Sep-20 10:09N 46°07' W 001°40'2 1.2
2016-Sep-20 08:28N 46°07' W 001°37'3 2.9
2016-Sep-20 07:34N 46°08' W 001°40'10 1.9
2016-Sep-20 02:33N 46°18' W 001°44'7 2.2
2016-Sep-19 23:34N 46°21' W 001°52'7 1.8
2016-Sep-19 19:34N 46°28' W 001°47'9 8.8
2016-Sep-19 18:33N 46°19' W 001°44'12 2.8
2016-Sep-19 14:16N 46°08' W 001°40'2 1.3
2016-Sep-19 12:31N 46°07' W 001°36'3 1.0
2016-Sep-19 09:26N 46°09' W 001°40'6 3.3
2016-Sep-19 07:34N 46°15' W 001°43'4 3.8
2016-Sep-19 06:34N 46°18' W 001°44'5 1.8
2016-Sep-19 03:33N 46°22' W 001°50'4 3.8
2016-Sep-19 02:34N 46°20' W 001°55'6 2.8
2016-Sep-19 00:34N 46°23' W 002°02'7 1.4
2016-Sep-18 19:33N 46°24' W 001°52'11 1.2
2016-Sep-18 10:28N 46°13' W 001°46'3 3.5
2016-Sep-18 09:33N 46°16' W 001°48'14 0.4
2016-Sep-17 00:33N 46°30' W 001°47'  

Dump ship's entire track history